createdAt,value
2018-03-29T00:01:32.230Z,6.60
2018-03-29T00:04:34.726Z,8.53
2018-03-29T00:07:37.219Z,5.70
2018-03-29T00:10:39.779Z,8.53
2018-03-29T00:13:42.287Z,8.50
2018-03-29T00:16:44.867Z,7.90
2018-03-29T00:19:47.317Z,8.50
2018-03-29T00:22:49.815Z,8.83
2018-03-29T00:25:52.257Z,8.43
2018-03-29T00:28:54.762Z,8.53
2018-03-29T00:31:57.255Z,9.47
2018-03-29T00:34:59.705Z,10.40
2018-03-29T00:38:02.191Z,9.77
2018-03-29T00:41:04.635Z,9.80
2018-03-29T00:44:07.146Z,9.60
2018-03-29T00:47:09.671Z,10.10
2018-03-29T00:50:12.186Z,9.97
2018-03-29T00:53:26.607Z,10.00
2018-03-29T00:56:29.172Z,8.23
2018-03-29T00:59:31.835Z,7.20
2018-03-29T01:02:34.281Z,5.73
2018-03-29T01:05:36.778Z,7.80
2018-03-29T01:08:39.322Z,6.07
2018-03-29T01:11:41.887Z,6.17
2018-03-29T01:14:44.377Z,6.23
2018-03-29T01:17:46.821Z,5.50
2018-03-29T01:20:49.347Z,7.00
2018-03-29T01:23:51.795Z,7.60
2018-03-29T01:26:54.267Z,7.20
2018-03-29T01:29:56.721Z,6.37
2018-03-29T01:32:59.276Z,6.23
2018-03-29T01:36:01.742Z,5.27
2018-03-29T01:39:04.181Z,6.23
2018-03-29T01:42:06.668Z,6.60
2018-03-29T01:45:10.366Z,5.10
2018-03-29T01:48:12.876Z,5.67
2018-03-29T01:51:15.403Z,5.00
2018-03-29T01:54:17.971Z,5.37
2018-03-29T01:57:20.452Z,4.23
2018-03-29T02:00:22.902Z,4.83
2018-03-29T02:03:25.401Z,4.40
2018-03-29T02:06:27.861Z,4.40
2018-03-29T02:09:30.307Z,5.40
2018-03-29T02:12:34.274Z,4.20
2018-03-29T02:15:36.752Z,4.53
2018-03-29T02:18:39.184Z,5.73
2018-03-29T02:21:41.670Z,5.70
2018-03-29T02:24:44.153Z,6.67
2018-03-29T02:27:46.618Z,8.40
2018-03-29T02:30:49.101Z,9.23
2018-03-29T02:33:51.598Z,7.53
2018-03-29T02:36:54.121Z,5.97
2018-03-29T02:39:56.574Z,5.93
2018-03-29T02:42:59.078Z,8.30
2018-03-29T02:46:01.638Z,7.60
2018-03-29T02:49:04.090Z,8.07
2018-03-29T02:52:06.599Z,7.43
2018-03-29T02:55:09.143Z,9.17
2018-03-29T02:58:11.705Z,7.80
2018-03-29T03:01:14.183Z,11.87
2018-03-29T03:04:16.637Z,11.07
2018-03-29T03:07:19.173Z,9.20
2018-03-29T03:10:21.697Z,9.10
2018-03-29T03:13:24.184Z,10.23
2018-03-29T03:16:26.639Z,7.90
2018-03-29T03:19:29.139Z,9.90
2018-03-29T03:22:31.614Z,7.57
2018-03-29T03:25:34.122Z,9.10
2018-03-29T03:28:36.677Z,6.07
2018-03-29T03:31:39.208Z,9.33
2018-03-29T03:34:41.724Z,8.60
2018-03-29T03:37:44.194Z,9.20
2018-03-29T03:40:46.772Z,7.57
2018-03-29T03:43:49.247Z,9.30
2018-03-29T03:46:51.717Z,9.13
2018-03-29T03:49:54.257Z,8.23
2018-03-29T03:52:56.791Z,11.60
2018-03-29T03:55:59.239Z,6.83
2018-03-29T03:59:01.738Z,7.20
2018-03-29T04:02:04.185Z,6.57
2018-03-29T04:05:06.739Z,8.83
2018-03-29T04:08:09.177Z,9.00
2018-03-29T04:11:11.689Z,9.43
2018-03-29T04:14:14.200Z,9.50
2018-03-29T04:17:16.696Z,9.20
2018-03-29T04:20:19.245Z,9.20
2018-03-29T04:23:21.733Z,11.23
2018-03-29T04:26:24.194Z,14.20
2018-03-29T04:29:26.702Z,11.50
2018-03-29T04:32:29.184Z,8.90
2018-03-29T04:35:31.749Z,7.67
2018-03-29T04:38:34.188Z,10.07
2018-03-29T04:41:36.785Z,12.90
2018-03-29T04:44:39.265Z,12.43
2018-03-29T04:47:41.729Z,12.77
2018-03-29T04:50:44.255Z,11.40
2018-03-29T04:53:46.719Z,10.40
2018-03-29T04:56:49.279Z,9.60
2018-03-29T04:59:51.844Z,10.20
2018-03-29T05:02:54.390Z,11.00
2018-03-29T05:05:56.880Z,11.53
2018-03-29T05:08:59.325Z,11.27
2018-03-29T05:12:01.819Z,15.00
2018-03-29T05:15:04.436Z,9.70
2018-03-29T05:18:06.955Z,16.30
2018-03-29T05:21:09.522Z,15.80
2018-03-29T05:24:12.029Z,13.30
2018-03-29T05:27:19.311Z,11.77
2018-03-29T05:30:21.829Z,14.50
2018-03-29T05:33:24.339Z,11.90
2018-03-29T05:36:26.806Z,11.33
2018-03-29T05:39:30.389Z,17.00
2018-03-29T05:42:32.951Z,13.03
2018-03-29T05:45:35.534Z,16.83
2018-03-29T05:48:38.006Z,16.50
2018-03-29T05:51:40.442Z,19.40
2018-03-29T05:54:42.964Z,13.80
2018-03-29T05:57:45.442Z,17.50
2018-03-29T06:00:47.966Z,17.23
2018-03-29T06:03:50.395Z,17.50
2018-03-29T06:06:52.951Z,20.07
2018-03-29T06:09:55.434Z,14.73
2018-03-29T06:12:57.961Z,16.87
2018-03-29T06:16:04.368Z,17.90
2018-03-29T06:19:09.846Z,15.27
2018-03-29T06:22:12.405Z,20.07
2018-03-29T06:25:14.890Z,24.70
2018-03-29T06:28:17.385Z,18.97
2018-03-29T06:31:19.834Z,19.53
2018-03-29T06:34:22.455Z,16.87
2018-03-29T06:37:24.949Z,18.40
2018-03-29T06:40:27.474Z,22.90
2018-03-29T06:43:29.929Z,21.40
2018-03-29T06:46:32.412Z,20.17
2018-03-29T06:49:34.881Z,20.07
2018-03-29T06:52:37.416Z,18.27
2018-03-29T06:55:39.887Z,20.40
2018-03-29T06:58:42.454Z,19.40
2018-03-29T07:01:44.900Z,19.47
2018-03-29T07:04:47.388Z,19.43
2018-03-29T07:07:49.826Z,21.10
2018-03-29T07:10:52.305Z,22.23
2018-03-29T07:13:54.845Z,23.43
2018-03-29T07:16:57.302Z,21.83
2018-03-29T07:19:59.868Z,19.70
2018-03-29T07:23:02.377Z,21.33
2018-03-29T07:26:04.995Z,23.13
2018-03-29T07:29:07.477Z,17.33
2018-03-29T07:32:10.020Z,19.10
2018-03-29T07:35:12.532Z,21.00
2018-03-29T07:38:15.002Z,20.97
2018-03-29T07:41:17.506Z,20.33
2018-03-29T07:44:20.062Z,23.87
2018-03-29T07:47:22.531Z,22.60
2018-03-29T07:50:25.046Z,19.40
2018-03-29T07:53:27.527Z,25.60
2018-03-29T07:56:30.008Z,25.53
2018-03-29T07:59:32.501Z,23.70
2018-03-29T08:02:35.058Z,23.20
2018-03-29T08:05:37.566Z,26.60
2018-03-29T08:08:40.078Z,26.37
2018-03-29T08:11:42.556Z,27.23
2018-03-29T08:14:45.077Z,28.33
2018-03-29T08:17:47.576Z,25.77
2018-03-29T08:20:50.007Z,26.10
2018-03-29T08:23:52.477Z,28.07
2018-03-29T08:26:54.946Z,28.57
2018-03-29T08:29:57.423Z,32.73
2018-03-29T08:32:59.902Z,35.90
2018-03-29T08:36:02.428Z,38.43
2018-03-29T08:39:05.895Z,35.23
2018-03-29T08:42:08.425Z,36.93
2018-03-29T08:45:10.940Z,34.33
2018-03-29T08:48:13.470Z,33.73
2018-03-29T08:51:16.038Z,33.07
2018-03-29T08:54:26.361Z,36.03
2018-03-29T08:57:28.936Z,36.40
2018-03-29T09:00:31.442Z,37.97
2018-03-29T09:03:33.937Z,36.20
2018-03-29T09:06:36.399Z,35.43
2018-03-29T09:09:38.990Z,39.10
2018-03-29T09:12:41.483Z,36.10
2018-03-29T09:15:43.991Z,39.60
2018-03-29T09:18:46.472Z,46.20
2018-03-29T09:21:49.078Z,41.47
2018-03-29T09:24:51.603Z,43.43
2018-03-29T09:27:54.066Z,50.30
2018-03-29T09:30:56.572Z,41.50
2018-03-29T09:33:59.033Z,47.90
2018-03-29T09:37:01.505Z,41.70
2018-03-29T09:40:03.989Z,44.43
2018-03-29T09:43:06.567Z,44.63
2018-03-29T09:46:09.127Z,41.00
2018-03-29T09:49:11.587Z,43.47
2018-03-29T09:52:14.096Z,40.23
2018-03-29T09:55:16.584Z,40.57
2018-03-29T09:58:19.080Z,43.23
2018-03-29T10:01:21.633Z,37.63
2018-03-29T10:04:24.203Z,35.07
2018-03-29T10:07:32.186Z,38.07
2018-03-29T10:10:34.702Z,35.53
2018-03-29T10:13:37.189Z,33.87
2018-03-29T10:16:39.774Z,31.30
2018-03-29T10:19:42.297Z,33.83
2018-03-29T10:22:44.774Z,36.07
2018-03-29T10:25:47.360Z,29.70
2018-03-29T10:28:49.813Z,31.07
2018-03-29T10:31:52.388Z,33.63
2018-03-29T10:34:54.904Z,33.17
2018-03-29T10:37:57.397Z,27.87
2018-03-29T10:40:59.897Z,33.03
2018-03-29T10:44:02.379Z,33.17
2018-03-29T10:47:04.890Z,34.57
2018-03-29T10:50:07.379Z,31.87
2018-03-29T10:53:09.948Z,28.90
2018-03-29T10:56:12.575Z,30.90
2018-03-29T10:59:15.038Z,30.70
2018-03-29T11:02:17.534Z,35.27
2018-03-29T11:05:20.060Z,30.40
2018-03-29T11:08:22.597Z,30.00
2018-03-29T11:11:25.106Z,29.77
2018-03-29T11:14:27.748Z,28.30
2018-03-29T11:17:30.413Z,27.37
2018-03-29T11:20:32.984Z,30.90
2018-03-29T11:23:35.513Z,29.33
2018-03-29T11:26:38.107Z,29.27
2018-03-29T11:29:40.606Z,29.23
2018-03-29T11:32:43.102Z,30.07
2018-03-29T11:35:45.685Z,31.07
2018-03-29T11:38:48.145Z,28.23
2018-03-29T11:41:50.830Z,27.63
2018-03-29T11:44:53.314Z,28.13
2018-03-29T11:47:55.839Z,28.37
2018-03-29T11:50:58.328Z,32.40
2018-03-29T11:54:00.800Z,27.23
2018-03-29T11:57:03.384Z,29.57
2018-03-29T12:00:05.924Z,34.17
2018-03-29T12:03:08.444Z,28.73
2018-03-29T12:06:11.014Z,29.60
2018-03-29T12:09:13.530Z,34.67
2018-03-29T12:12:15.985Z,33.63
2018-03-29T12:15:18.536Z,34.37
2018-03-29T12:18:21.006Z,31.70
2018-03-29T12:21:23.544Z,32.97
2018-03-29T12:24:26.037Z,31.73
2018-03-29T12:27:28.756Z,27.73
2018-03-29T12:30:31.240Z,30.00
2018-03-29T12:33:33.874Z,28.50
2018-03-29T12:36:36.318Z,28.53
2018-03-29T12:39:38.871Z,29.63
2018-03-29T12:42:41.349Z,27.17
2018-03-29T12:45:43.814Z,31.13
2018-03-29T12:48:46.300Z,27.50
2018-03-29T12:51:48.779Z,26.87
2018-03-29T12:55:03.165Z,25.57
2018-03-29T12:58:11.467Z,25.37
2018-03-29T13:01:14.019Z,23.50
2018-03-29T13:04:16.539Z,25.17
2018-03-29T13:07:19.022Z,25.00
2018-03-29T13:10:21.532Z,24.10
2018-03-29T13:13:24.063Z,24.87
2018-03-29T13:16:26.640Z,24.20
2018-03-29T13:19:29.155Z,30.00
2018-03-29T13:22:31.663Z,23.37
2018-03-29T13:25:34.205Z,25.90
2018-03-29T13:28:36.709Z,25.97
2018-03-29T13:31:39.190Z,14.37
2018-03-29T13:34:41.673Z,15.10
2018-03-29T13:37:44.140Z,14.83
2018-03-29T13:40:46.710Z,15.87
2018-03-29T13:43:49.155Z,17.60
2018-03-29T13:46:51.699Z,16.40
2018-03-29T13:49:54.209Z,16.63
2018-03-29T13:52:56.704Z,16.00
2018-03-29T13:55:59.233Z,16.53
2018-03-29T13:59:01.736Z,18.50
2018-03-29T14:02:04.272Z,17.90
2018-03-29T14:05:06.757Z,31.40
2018-03-29T14:08:09.262Z,23.07
2018-03-29T14:11:11.760Z,20.37
2018-03-29T14:14:14.269Z,17.30
2018-03-29T14:17:16.791Z,16.60
2018-03-29T14:20:19.276Z,30.17
2018-03-29T14:23:21.780Z,20.97
2018-03-29T14:26:24.227Z,26.97
2018-03-29T14:29:26.725Z,25.27
2018-03-29T14:32:29.249Z,31.33
2018-03-29T14:35:31.767Z,24.53
2018-03-29T14:38:34.295Z,27.27
2018-03-29T14:41:36.791Z,26.30
2018-03-29T14:44:39.442Z,28.57
2018-03-29T14:47:42.094Z,27.33
2018-03-29T14:50:44.754Z,21.67
2018-03-29T14:53:47.317Z,16.17
2018-03-29T14:56:49.852Z,17.07
2018-03-29T14:59:52.330Z,17.37
2018-03-29T15:02:54.887Z,18.40
2018-03-29T15:05:57.383Z,18.63
2018-03-29T15:08:59.882Z,19.27
2018-03-29T15:12:02.349Z,21.37
2018-03-29T15:15:04.876Z,22.40
2018-03-29T15:18:07.392Z,15.57
2018-03-29T15:21:09.893Z,18.57
2018-03-29T15:24:12.376Z,14.70
2018-03-29T15:27:14.879Z,17.87
2018-03-29T15:30:17.409Z,15.87
2018-03-29T15:33:19.951Z,19.20
2018-03-29T15:36:22.427Z,18.63
2018-03-29T15:39:24.951Z,17.97
2018-03-29T15:42:27.437Z,19.30
2018-03-29T15:45:29.945Z,20.33
2018-03-29T15:51:41.326Z,22.30
2018-03-29T15:54:43.791Z,21.10
2018-03-29T15:57:46.327Z,22.00
2018-03-29T16:00:48.866Z,21.20
2018-03-29T16:03:51.332Z,25.20
2018-03-29T16:06:53.920Z,28.30
2018-03-29T16:09:56.428Z,24.67
2018-03-29T16:12:58.915Z,19.37
2018-03-29T16:16:01.397Z,19.43
2018-03-29T16:19:03.916Z,17.60
2018-03-29T16:22:06.404Z,17.87
2018-03-29T16:25:08.930Z,17.00
2018-03-29T16:28:11.467Z,18.20
2018-03-29T16:31:13.910Z,16.77
2018-03-29T16:34:16.390Z,13.67
2018-03-29T16:37:18.972Z,15.77
2018-03-29T16:40:21.531Z,15.07
2018-03-29T16:43:24.077Z,17.20
2018-03-29T16:46:26.583Z,14.33
2018-03-29T16:49:29.037Z,15.50
2018-03-29T16:52:31.669Z,15.77
2018-03-29T16:55:34.223Z,13.77
2018-03-29T16:58:36.705Z,17.97
2018-03-29T17:01:39.257Z,18.80
2018-03-29T17:04:43.365Z,16.23
2018-03-29T17:07:45.926Z,19.60
2018-03-29T17:10:48.411Z,23.07
2018-03-29T17:13:50.942Z,19.60
2018-03-29T17:16:53.533Z,17.27
2018-03-29T17:19:55.957Z,23.00
2018-03-29T17:22:58.526Z,24.10
2018-03-29T17:26:00.983Z,18.73
2018-03-29T17:29:03.557Z,22.00
2018-03-29T17:32:06.207Z,21.20
2018-03-29T17:35:08.702Z,19.60
2018-03-29T17:38:11.208Z,21.17
2018-03-29T17:41:13.732Z,22.27
2018-03-29T17:44:16.301Z,20.83
2018-03-29T17:47:18.828Z,22.00
2018-03-29T17:50:21.417Z,23.10
2018-03-29T17:53:23.868Z,22.10
2018-03-29T17:56:26.356Z,23.63
2018-03-29T17:59:28.972Z,29.10
2018-03-29T18:02:31.432Z,25.43
2018-03-29T18:05:33.952Z,28.50
2018-03-29T18:08:36.464Z,24.90
2018-03-29T18:11:39.003Z,30.10
2018-03-29T18:14:41.572Z,28.10
2018-03-29T18:17:44.075Z,26.60
2018-03-29T18:20:46.603Z,27.63
2018-03-29T18:23:49.111Z,29.40
2018-03-29T18:26:51.667Z,32.57
2018-03-29T18:29:54.170Z,35.30
2018-03-29T18:32:56.714Z,34.03
2018-03-29T18:36:16.795Z,33.90
2018-03-29T18:39:19.279Z,36.73
2018-03-29T18:42:21.704Z,34.97
2018-03-29T18:45:24.113Z,35.43
2018-03-29T18:48:26.563Z,34.63
2018-03-29T18:51:28.981Z,36.73
2018-03-29T18:54:31.413Z,39.60
2018-03-29T18:57:33.940Z,36.13
2018-03-29T19:00:36.379Z,37.37
2018-03-29T19:03:38.938Z,39.70
2018-03-29T19:06:41.439Z,40.30
2018-03-29T19:09:43.885Z,39.17
2018-03-29T19:12:46.344Z,41.73
2018-03-29T19:15:48.766Z,39.40
2018-03-29T19:18:51.181Z,41.93
2018-03-29T19:21:53.574Z,40.83
2018-03-29T19:24:56.040Z,39.67
2018-03-29T19:27:58.463Z,42.00
2018-03-29T19:31:00.858Z,39.63
2018-03-29T19:34:03.262Z,41.33
2018-03-29T19:37:05.722Z,48.93
2018-03-29T19:40:08.194Z,48.30
2018-03-29T19:43:10.652Z,44.40
2018-03-29T19:46:13.095Z,42.20
2018-03-29T19:49:15.504Z,42.10
2018-03-29T19:52:17.992Z,41.90
2018-03-29T19:55:20.436Z,47.30
2018-03-29T19:58:22.831Z,47.77
2018-03-29T20:01:25.366Z,42.30
2018-03-29T20:04:27.785Z,46.67
2018-03-29T20:07:30.270Z,51.40
2018-03-29T20:10:32.720Z,52.07
2018-03-29T20:13:35.162Z,50.00
2018-03-29T20:16:37.650Z,43.37
2018-03-29T20:19:40.059Z,43.37
2018-03-29T20:22:42.551Z,49.60
2018-03-29T20:25:44.987Z,40.97
2018-03-29T20:28:47.469Z,44.00
2018-03-29T20:31:49.886Z,51.40
2018-03-29T20:34:52.355Z,45.93
2018-03-29T20:37:54.824Z,43.20
2018-03-29T20:40:57.231Z,50.67
2018-03-29T20:43:59.710Z,49.43
2018-03-29T20:47:02.223Z,47.97
2018-03-29T20:50:04.709Z,48.50
2018-03-29T20:53:07.111Z,47.63
2018-03-29T20:56:09.643Z,47.27
2018-03-29T20:59:12.151Z,47.10
2018-03-29T21:02:14.615Z,44.37
2018-03-29T21:05:17.091Z,39.17
2018-03-29T21:08:19.534Z,44.77
2018-03-29T21:11:22.002Z,47.20
2018-03-29T21:14:24.471Z,47.30
2018-03-29T21:17:26.875Z,47.93
2018-03-29T21:20:29.366Z,44.63
2018-03-29T21:23:31.831Z,47.00
2018-03-29T21:26:34.236Z,51.67
2018-03-29T21:29:36.660Z,46.13
2018-03-29T21:32:39.092Z,49.50
2018-03-29T21:35:41.510Z,46.87
2018-03-29T21:38:43.905Z,46.87
2018-03-29T21:41:46.373Z,51.83
2018-03-29T21:44:48.762Z,48.30
2018-03-29T21:47:51.169Z,52.33
2018-03-29T21:50:53.692Z,46.40
2018-03-29T21:53:56.233Z,47.30
2018-03-29T21:56:58.780Z,53.60
2018-03-29T22:00:01.211Z,54.53
2018-03-29T22:03:03.662Z,44.87
2018-03-29T22:06:06.115Z,45.10
2018-03-29T22:09:08.502Z,41.67
2018-03-29T22:12:10.995Z,48.10
2018-03-29T22:15:13.420Z,48.77
2018-03-29T22:18:15.917Z,54.10
2018-03-29T22:21:18.326Z,47.77
2018-03-29T22:24:20.787Z,53.37
2018-03-29T22:27:23.166Z,50.50
2018-03-29T22:30:25.654Z,46.70
2018-03-29T22:33:28.070Z,47.37
2018-03-29T22:36:30.679Z,54.07
2018-03-29T22:39:33.055Z,48.63
2018-03-29T22:42:35.480Z,44.80
2018-03-29T22:45:37.927Z,50.97
2018-03-29T22:48:41.080Z,49.00
2018-03-29T22:51:43.498Z,52.00
2018-03-29T22:54:46.332Z,53.10
2018-03-29T22:57:48.722Z,50.47
2018-03-29T23:00:51.131Z,50.60
2018-03-29T23:03:53.657Z,53.73
2018-03-29T23:06:56.048Z,50.07
2018-03-29T23:09:58.567Z,55.60
2018-03-29T23:13:01.078Z,50.90
2018-03-29T23:16:03.512Z,55.57
2018-03-29T23:19:05.982Z,51.30
2018-03-29T23:22:08.377Z,49.60
2018-03-29T23:25:10.808Z,49.53
2018-03-29T23:28:13.226Z,49.53
2018-03-29T23:31:15.661Z,48.47
2018-03-29T23:34:18.021Z,49.93
2018-03-29T23:37:20.502Z,47.30
2018-03-29T23:40:22.962Z,45.57
2018-03-29T23:43:25.408Z,47.47
2018-03-29T23:46:27.808Z,46.20
2018-03-29T23:49:30.241Z,49.33
2018-03-29T23:52:32.658Z,53.30
2018-03-29T23:55:35.060Z,50.13
2018-03-29T23:58:37.501Z,51.13
